sensor_id;sensor_type;location;lat;lon;timestamp;P1;durP1;ratioP1;P2;durP2;ratioP2
19278;SDS011;9773;47.062;15.446;2023-04-05T00:01:25;3.30;;;3.00;;
19278;SDS011;9773;47.062;15.446;2023-04-05T00:03:56;3.47;;;3.13;;
19278;SDS011;9773;47.062;15.446;2023-04-05T00:06:26;3.90;;;3.50;;
19278;SDS011;9773;47.062;15.446;2023-04-05T00:08:57;3.77;;;3.23;;
19278;SDS011;9773;47.062;15.446;2023-04-05T00:11:26;3.60;;;3.27;;
19278;SDS011;9773;47.062;15.446;2023-04-05T00:13:54;3.67;;;3.37;;
19278;SDS011;9773;47.062;15.446;2023-04-05T00:16:20;5.97;;;2.90;;
19278;SDS011;9773;47.062;15.446;2023-04-05T00:18:46;3.30;;;3.10;;
19278;SDS011;9773;47.062;15.446;2023-04-05T00:21:19;3.60;;;3.30;;
19278;SDS011;9773;47.062;15.446;2023-04-05T00:23:46;4.17;;;3.43;;
19278;SDS011;9773;47.062;15.446;2023-04-05T00:26:15;4.40;;;2.90;;
19278;SDS011;9773;47.062;15.446;2023-04-05T00:28:42;3.80;;;3.50;;
19278;SDS011;9773;47.062;15.446;2023-04-05T00:31:07;4.97;;;3.20;;
19278;SDS011;9773;47.062;15.446;2023-04-05T00:33:34;3.33;;;3.03;;
19278;SDS011;9773;47.062;15.446;2023-04-05T00:36:09;3.90;;;3.17;;
19278;SDS011;9773;47.062;15.446;2023-04-05T00:38:36;4.07;;;3.40;;
19278;SDS011;9773;47.062;15.446;2023-04-05T00:41:02;3.00;;;2.80;;
19278;SDS011;9773;47.062;15.446;2023-04-05T00:43:28;3.53;;;3.20;;
19278;SDS011;9773;47.062;15.446;2023-04-05T00:45:54;4.63;;;3.33;;
19278;SDS011;9773;47.062;15.446;2023-04-05T00:48:21;3.40;;;3.10;;
19278;SDS011;9773;47.062;15.446;2023-04-05T00:50:47;3.27;;;2.97;;
19278;SDS011;9773;47.062;15.446;2023-04-05T00:53:17;3.47;;;3.17;;
19278;SDS011;9773;47.062;15.446;2023-04-05T00:55:45;4.30;;;3.20;;
19278;SDS011;9773;47.062;15.446;2023-04-05T00:58:15;4.27;;;3.30;;
19278;SDS011;9773;47.062;15.446;2023-04-05T01:01:09;4.40;;;3.80;;
19278;SDS011;9773;47.062;15.446;2023-04-05T01:03:59;3.60;;;3.30;;
19278;SDS011;9773;47.062;15.446;2023-04-05T01:11:58;2.93;;;2.73;;
19278;SDS011;9773;47.062;15.446;2023-04-05T01:14:27;3.47;;;3.13;;
19278;SDS011;9773;47.062;15.446;2023-04-05T01:16:53;4.67;;;3.50;;
19278;SDS011;9773;47.062;15.446;2023-04-05T01:19:24;3.83;;;3.40;;
19278;SDS011;9773;47.062;15.446;2023-04-05T01:22:02;3.30;;;3.00;;
19278;SDS011;9773;47.062;15.446;2023-04-05T01:24:42;4.67;;;3.23;;
19278;SDS011;9773;47.062;15.446;2023-04-05T01:27:23;3.20;;;3.00;;
19278;SDS011;9773;47.062;15.446;2023-04-05T01:30:23;4.13;;;3.47;;
19278;SDS011;9773;47.062;15.446;2023-04-05T01:38:40;5.07;;;4.00;;
19278;SDS011;9773;47.062;15.446;2023-04-05T01:41:10;3.73;;;3.40;;
19278;SDS011;9773;47.062;15.446;2023-04-05T01:43:36;4.17;;;3.77;;
19278;SDS011;9773;47.062;15.446;2023-04-05T01:46:01;5.07;;;3.60;;
19278;SDS011;9773;47.062;15.446;2023-04-05T01:48:27;3.60;;;3.30;;
19278;SDS011;9773;47.062;15.446;2023-04-05T01:50:53;4.20;;;3.80;;
19278;SDS011;9773;47.062;15.446;2023-04-05T01:53:18;4.40;;;3.40;;
19278;SDS011;9773;47.062;15.446;2023-04-05T01:55:44;3.47;;;3.27;;
19278;SDS011;9773;47.062;15.446;2023-04-05T01:58:10;5.47;;;3.83;;
19278;SDS011;9773;47.062;15.446;2023-04-05T02:00:36;4.73;;;3.70;;
19278;SDS011;9773;47.062;15.446;2023-04-05T02:03:02;4.60;;;3.73;;
19278;SDS011;9773;47.062;15.446;2023-04-05T02:05:28;4.47;;;3.67;;
19278;SDS011;9773;47.062;15.446;2023-04-05T02:07:53;3.83;;;3.53;;
19278;SDS011;9773;47.062;15.446;2023-04-05T02:10:20;5.37;;;3.90;;
19278;SDS011;9773;47.062;15.446;2023-04-05T02:12:47;3.40;;;3.10;;
19278;SDS011;9773;47.062;15.446;2023-04-05T02:15:12;6.50;;;3.70;;
19278;SDS011;9773;47.062;15.446;2023-04-05T02:17:38;4.77;;;4.10;;
19278;SDS011;9773;47.062;15.446;2023-04-05T02:20:05;5.83;;;3.80;;
19278;SDS011;9773;47.062;15.446;2023-04-05T02:22:32;5.57;;;4.10;;
19278;SDS011;9773;47.062;15.446;2023-04-05T02:24:58;3.80;;;3.40;;
19278;SDS011;9773;47.062;15.446;2023-04-05T02:27:23;4.23;;;3.83;;
19278;SDS011;9773;47.062;15.446;2023-04-05T02:29:49;4.47;;;4.03;;
19278;SDS011;9773;47.062;15.446;2023-04-05T02:32:17;4.50;;;3.63;;
19278;SDS011;9773;47.062;15.446;2023-04-05T02:34:42;5.80;;;4.30;;
19278;SDS011;9773;47.062;15.446;2023-04-05T02:37:08;6.33;;;3.67;;
19278;SDS011;9773;47.062;15.446;2023-04-05T02:39:34;4.23;;;3.70;;
19278;SDS011;9773;47.062;15.446;2023-04-05T02:41:59;3.63;;;3.33;;
19278;SDS011;9773;47.062;15.446;2023-04-05T02:44:25;4.13;;;3.73;;
19278;SDS011;9773;47.062;15.446;2023-04-05T02:46:51;5.37;;;4.30;;
19278;SDS011;9773;47.062;15.446;2023-04-05T02:49:16;4.63;;;3.90;;
19278;SDS011;9773;47.062;15.446;2023-04-05T02:51:42;4.07;;;3.73;;
19278;SDS011;9773;47.062;15.446;2023-04-05T02:54:08;4.47;;;4.03;;
19278;SDS011;9773;47.062;15.446;2023-04-05T02:56:33;4.53;;;4.13;;
19278;SDS011;9773;47.062;15.446;2023-04-05T02:58:59;4.60;;;3.87;;
19278;SDS011;9773;47.062;15.446;2023-04-05T03:01:25;5.93;;;4.07;;
19278;SDS011;9773;47.062;15.446;2023-04-05T03:03:51;3.87;;;3.50;;
19278;SDS011;9773;47.062;15.446;2023-04-05T03:06:17;4.53;;;4.13;;
19278;SDS011;9773;47.062;15.446;2023-04-05T03:08:44;4.67;;;3.93;;
19278;SDS011;9773;47.062;15.446;2023-04-05T03:11:13;6.00;;;4.23;;
19278;SDS011;9773;47.062;15.446;2023-04-05T03:13:39;4.67;;;4.00;;
19278;SDS011;9773;47.062;15.446;2023-04-05T03:16:05;6.53;;;3.70;;
19278;SDS011;9773;47.062;15.446;2023-04-05T03:18:31;4.13;;;3.73;;
19278;SDS011;9773;47.062;15.446;2023-04-05T03:20:57;4.10;;;3.63;;
19278;SDS011;9773;47.062;15.446;2023-04-05T03:23:24;4.70;;;3.93;;
19278;SDS011;9773;47.062;15.446;2023-04-05T03:25:57;6.33;;;4.20;;
19278;SDS011;9773;47.062;15.446;2023-04-05T03:28:27;6.47;;;4.50;;
19278;SDS011;9773;47.062;15.446;2023-04-05T03:30:54;4.20;;;3.63;;
19278;SDS011;9773;47.062;15.446;2023-04-05T03:33:20;4.83;;;4.20;;
19278;SDS011;9773;47.062;15.446;2023-04-05T03:35:46;6.80;;;4.17;;
19278;SDS011;9773;47.062;15.446;2023-04-05T03:38:12;5.00;;;4.23;;
19278;SDS011;9773;47.062;15.446;2023-04-05T03:40:38;5.30;;;4.53;;
19278;SDS011;9773;47.062;15.446;2023-04-05T03:43:04;4.50;;;4.10;;
19278;SDS011;9773;47.062;15.446;2023-04-05T03:45:29;7.33;;;4.77;;
19278;SDS011;9773;47.062;15.446;2023-04-05T03:47:56;7.30;;;4.60;;
19278;SDS011;9773;47.062;15.446;2023-04-05T03:50:22;5.53;;;3.97;;
19278;SDS011;9773;47.062;15.446;2023-04-05T03:52:50;5.33;;;4.00;;
19278;SDS011;9773;47.062;15.446;2023-04-05T03:55:16;6.53;;;4.40;;
19278;SDS011;9773;47.062;15.446;2023-04-05T03:57:42;4.40;;;4.00;;
19278;SDS011;9773;47.062;15.446;2023-04-05T04:00:08;8.03;;;4.10;;
19278;SDS011;9773;47.062;15.446;2023-04-05T04:02:45;4.53;;;4.13;;
19278;SDS011;9773;47.062;15.446;2023-04-05T04:05:12;4.77;;;4.30;;
19278;SDS011;9773;47.062;15.446;2023-04-05T04:07:40;5.53;;;3.90;;
19278;SDS011;9773;47.062;15.446;2023-04-05T04:10:06;4.63;;;3.73;;
19278;SDS011;9773;47.062;15.446;2023-04-05T04:12:34;4.53;;;4.03;;
19278;SDS011;9773;47.062;15.446;2023-04-05T04:15:00;5.93;;;4.33;;
19278;SDS011;9773;47.062;15.446;2023-04-05T04:19:56;4.43;;;4.03;;
19278;SDS011;9773;47.062;15.446;2023-04-05T04:22:22;5.77;;;4.63;;
19278;SDS011;9773;47.062;15.446;2023-04-05T04:24:53;6.47;;;5.00;;
19278;SDS011;9773;47.062;15.446;2023-04-05T04:27:19;7.17;;;4.73;;
19278;SDS011;9773;47.062;15.446;2023-04-05T04:29:45;7.00;;;4.67;;
19278;SDS011;9773;47.062;15.446;2023-04-05T04:32:13;4.57;;;4.10;;
19278;SDS011;9773;47.062;15.446;2023-04-05T04:34:40;6.90;;;4.13;;
19278;SDS011;9773;47.062;15.446;2023-04-05T04:37:13;5.20;;;4.70;;
19278;SDS011;9773;47.062;15.446;2023-04-05T04:39:44;7.60;;;4.80;;
19278;SDS011;9773;47.062;15.446;2023-04-05T04:42:11;9.33;;;4.83;;
19278;SDS011;9773;47.062;15.446;2023-04-05T04:44:37;6.40;;;4.63;;
19278;SDS011;9773;47.062;15.446;2023-04-05T04:47:03;5.43;;;4.90;;
19278;SDS011;9773;47.062;15.446;2023-04-05T04:49:37;6.37;;;4.77;;
19278;SDS011;9773;47.062;15.446;2023-04-05T04:52:04;6.13;;;5.07;;
19278;SDS011;9773;47.062;15.446;2023-04-05T04:54:30;4.83;;;4.43;;
19278;SDS011;9773;47.062;15.446;2023-04-05T04:56:58;5.20;;;4.70;;
19278;SDS011;9773;47.062;15.446;2023-04-05T04:59:26;4.63;;;4.23;;
19278;SDS011;9773;47.062;15.446;2023-04-05T05:01:52;7.20;;;5.00;;
19278;SDS011;9773;47.062;15.446;2023-04-05T05:04:17;5.43;;;4.90;;
19278;SDS011;9773;47.062;15.446;2023-04-05T05:06:43;7.37;;;4.93;;
19278;SDS011;9773;47.062;15.446;2023-04-05T05:09:09;7.20;;;5.03;;
19278;SDS011;9773;47.062;15.446;2023-04-05T05:11:35;11.07;;;5.47;;
19278;SDS011;9773;47.062;15.446;2023-04-05T05:14:00;5.73;;;4.50;;
19278;SDS011;9773;47.062;15.446;2023-04-05T05:16:26;7.43;;;4.73;;
19278;SDS011;9773;47.062;15.446;2023-04-05T05:18:53;7.73;;;5.27;;
19278;SDS011;9773;47.062;15.446;2023-04-05T05:21:19;4.77;;;4.30;;
19278;SDS011;9773;47.062;15.446;2023-04-05T05:23:47;5.33;;;4.83;;
19278;SDS011;9773;47.062;15.446;2023-04-05T05:26:13;5.13;;;4.43;;
19278;SDS011;9773;47.062;15.446;2023-04-05T05:28:39;8.00;;;5.23;;
19278;SDS011;9773;47.062;15.446;2023-04-05T05:31:05;7.27;;;5.53;;
19278;SDS011;9773;47.062;15.446;2023-04-05T05:33:31;6.97;;;4.77;;
19278;SDS011;9773;47.062;15.446;2023-04-05T05:35:56;6.40;;;5.37;;
19278;SDS011;9773;47.062;15.446;2023-04-05T05:38:22;6.00;;;5.40;;
19278;SDS011;9773;47.062;15.446;2023-04-05T05:40:53;8.27;;;5.17;;
19278;SDS011;9773;47.062;15.446;2023-04-05T05:43:20;8.20;;;5.20;;
19278;SDS011;9773;47.062;15.446;2023-04-05T05:45:45;5.80;;;4.77;;
19278;SDS011;9773;47.062;15.446;2023-04-05T05:48:11;5.90;;;5.30;;
19278;SDS011;9773;47.062;15.446;2023-04-05T05:50:37;6.00;;;5.33;;
19278;SDS011;9773;47.062;15.446;2023-04-05T05:53:06;8.80;;;6.13;;
19278;SDS011;9773;47.062;15.446;2023-04-05T05:55:31;8.93;;;6.00;;
19278;SDS011;9773;47.062;15.446;2023-04-05T05:57:57;5.03;;;4.53;;
19278;SDS011;9773;47.062;15.446;2023-04-05T06:00:23;6.70;;;4.87;;
19278;SDS011;9773;47.062;15.446;2023-04-05T06:02:49;9.83;;;4.50;;
19278;SDS011;9773;47.062;15.446;2023-04-05T06:05:16;8.23;;;5.70;;
19278;SDS011;9773;47.062;15.446;2023-04-05T06:07:42;8.60;;;5.37;;
19278;SDS011;9773;47.062;15.446;2023-04-05T06:10:08;6.10;;;5.60;;
19278;SDS011;9773;47.062;15.446;2023-04-05T06:12:34;8.60;;;4.30;;
19278;SDS011;9773;47.062;15.446;2023-04-05T06:14:59;7.13;;;5.20;;
19278;SDS011;9773;47.062;15.446;2023-04-05T06:17:26;7.90;;;5.07;;
19278;SDS011;9773;47.062;15.446;2023-04-05T06:19:52;5.33;;;4.87;;
19278;SDS011;9773;47.062;15.446;2023-04-05T06:22:18;5.40;;;4.90;;
19278;SDS011;9773;47.062;15.446;2023-04-05T06:24:44;5.20;;;4.67;;
19278;SDS011;9773;47.062;15.446;2023-04-05T06:27:09;6.13;;;4.30;;
19278;SDS011;9773;47.062;15.446;2023-04-05T06:29:35;5.30;;;4.43;;
19278;SDS011;9773;47.062;15.446;2023-04-05T06:32:01;4.63;;;3.90;;
19278;SDS011;9773;47.062;15.446;2023-04-05T06:34:27;4.53;;;3.97;;
19278;SDS011;9773;47.062;15.446;2023-04-05T06:36:52;5.03;;;4.30;;
19278;SDS011;9773;47.062;15.446;2023-04-05T06:39:19;4.80;;;4.00;;
19278;SDS011;9773;47.062;15.446;2023-04-05T06:41:45;4.70;;;4.30;;
19278;SDS011;9773;47.062;15.446;2023-04-05T06:44:11;5.10;;;4.00;;
19278;SDS011;9773;47.062;15.446;2023-04-05T06:46:37;4.57;;;3.97;;
19278;SDS011;9773;47.062;15.446;2023-04-05T06:49:02;5.23;;;4.73;;
19278;SDS011;9773;47.062;15.446;2023-04-05T06:51:28;5.23;;;4.10;;
19278;SDS011;9773;47.062;15.446;2023-04-05T06:53:55;4.70;;;3.97;;
19278;SDS011;9773;47.062;15.446;2023-04-05T06:56:21;5.77;;;4.00;;
19278;SDS011;9773;47.062;15.446;2023-04-05T06:58:47;4.13;;;3.73;;
19278;SDS011;9773;47.062;15.446;2023-04-05T07:01:13;4.70;;;4.20;;
19278;SDS011;9773;47.062;15.446;2023-04-05T07:03:39;4.40;;;4.00;;
19278;SDS011;9773;47.062;15.446;2023-04-05T07:06:05;6.00;;;4.70;;
19278;SDS011;9773;47.062;15.446;2023-04-05T07:08:31;7.00;;;4.30;;
19278;SDS011;9773;47.062;15.446;2023-04-05T07:10:57;5.07;;;4.00;;
19278;SDS011;9773;47.062;15.446;2023-04-05T07:13:23;4.83;;;3.83;;
19278;SDS011;9773;47.062;15.446;2023-04-05T07:15:50;4.63;;;4.23;;
19278;SDS011;9773;47.062;15.446;2023-04-05T07:18:16;8.47;;;4.50;;
19278;SDS011;9773;47.062;15.446;2023-04-05T07:20:45;5.67;;;4.10;;
19278;SDS011;9773;47.062;15.446;2023-04-05T07:23:12;5.17;;;4.40;;
19278;SDS011;9773;47.062;15.446;2023-04-05T07:25:40;5.93;;;4.53;;
19278;SDS011;9773;47.062;15.446;2023-04-05T07:28:06;4.33;;;3.93;;
19278;SDS011;9773;47.062;15.446;2023-04-05T07:30:32;7.97;;;4.97;;
19278;SDS011;9773;47.062;15.446;2023-04-05T07:32:58;4.63;;;4.13;;
19278;SDS011;9773;47.062;15.446;2023-04-05T07:35:23;4.73;;;4.13;;
19278;SDS011;9773;47.062;15.446;2023-04-05T07:37:50;4.70;;;4.23;;
19278;SDS011;9773;47.062;15.446;2023-04-05T07:40:16;5.17;;;4.03;;
19278;SDS011;9773;47.062;15.446;2023-04-05T07:42:42;6.03;;;4.23;;
19278;SDS011;9773;47.062;15.446;2023-04-05T07:45:08;4.97;;;4.53;;
19278;SDS011;9773;47.062;15.446;2023-04-05T07:47:34;6.13;;;4.60;;
19278;SDS011;9773;47.062;15.446;2023-04-05T07:50:00;5.70;;;4.40;;
19278;SDS011;9773;47.062;15.446;2023-04-05T07:52:27;5.10;;;4.60;;
19278;SDS011;9773;47.062;15.446;2023-04-05T07:54:53;4.60;;;4.20;;
19278;SDS011;9773;47.062;15.446;2023-04-05T07:57:20;4.70;;;3.80;;
19278;SDS011;9773;47.062;15.446;2023-04-05T07:59:47;5.03;;;4.53;;
19278;SDS011;9773;47.062;15.446;2023-04-05T08:02:15;5.33;;;4.70;;
19278;SDS011;9773;47.062;15.446;2023-04-05T08:04:41;4.93;;;4.50;;
19278;SDS011;9773;47.062;15.446;2023-04-05T08:07:06;4.90;;;4.47;;
19278;SDS011;9773;47.062;15.446;2023-04-05T08:09:32;4.93;;;4.53;;
19278;SDS011;9773;47.062;15.446;2023-04-05T08:11:59;4.43;;;3.67;;
19278;SDS011;9773;47.062;15.446;2023-04-05T08:14:26;5.03;;;4.57;;
19278;SDS011;9773;47.062;15.446;2023-04-05T08:16:52;4.87;;;4.30;;
19278;SDS011;9773;47.062;15.446;2023-04-05T08:19:18;7.23;;;4.07;;
19278;SDS011;9773;47.062;15.446;2023-04-05T08:21:44;4.87;;;4.43;;
19278;SDS011;9773;47.062;15.446;2023-04-05T08:24:10;5.70;;;4.37;;
19278;SDS011;9773;47.062;15.446;2023-04-05T08:26:35;5.57;;;4.23;;
19278;SDS011;9773;47.062;15.446;2023-04-05T08:29:01;4.33;;;3.93;;
19278;SDS011;9773;47.062;15.446;2023-04-05T08:31:27;4.77;;;4.30;;
19278;SDS011;9773;47.062;15.446;2023-04-05T08:33:53;4.40;;;4.10;;
19278;SDS011;9773;47.062;15.446;2023-04-05T08:36:19;4.77;;;3.60;;
19278;SDS011;9773;47.062;15.446;2023-04-05T08:38:45;3.80;;;3.27;;
19278;SDS011;9773;47.062;15.446;2023-04-05T08:41:16;4.70;;;3.50;;
19278;SDS011;9773;47.062;15.446;2023-04-05T08:43:51;4.37;;;3.97;;
19278;SDS011;9773;47.062;15.446;2023-04-05T08:46:26;4.60;;;3.40;;
19278;SDS011;9773;47.062;15.446;2023-04-05T08:48:55;5.27;;;4.00;;
19278;SDS011;9773;47.062;15.446;2023-04-05T08:51:22;3.93;;;3.53;;
19278;SDS011;9773;47.062;15.446;2023-04-05T08:53:50;4.00;;;3.70;;
19278;SDS011;9773;47.062;15.446;2023-04-05T08:56:20;3.90;;;3.60;;
19278;SDS011;9773;47.062;15.446;2023-04-05T08:59:05;4.70;;;3.73;;
19278;SDS011;9773;47.062;15.446;2023-04-05T09:01:32;3.87;;;3.53;;
19278;SDS011;9773;47.062;15.446;2023-04-05T09:04:04;4.60;;;3.97;;
19278;SDS011;9773;47.062;15.446;2023-04-05T09:06:31;4.43;;;4.00;;
19278;SDS011;9773;47.062;15.446;2023-04-05T09:08:59;4.77;;;3.93;;
19278;SDS011;9773;47.062;15.446;2023-04-05T09:11:29;4.33;;;3.47;;
19278;SDS011;9773;47.062;15.446;2023-04-05T09:13:55;4.37;;;3.93;;
19278;SDS011;9773;47.062;15.446;2023-04-05T09:16:21;7.20;;;3.40;;
19278;SDS011;9773;47.062;15.446;2023-04-05T09:18:48;3.73;;;3.43;;
19278;SDS011;9773;47.062;15.446;2023-04-05T09:21:13;3.60;;;3.30;;
19278;SDS011;9773;47.062;15.446;2023-04-05T09:23:49;3.60;;;3.30;;
19278;SDS011;9773;47.062;15.446;2023-04-05T09:26:18;3.40;;;3.10;;
19278;SDS011;9773;47.062;15.446;2023-04-05T09:28:45;3.53;;;3.23;;
19278;SDS011;9773;47.062;15.446;2023-04-05T09:31:30;3.60;;;3.30;;
19278;SDS011;9773;47.062;15.446;2023-04-05T09:34:03;4.80;;;3.60;;
19278;SDS011;9773;47.062;15.446;2023-04-05T09:36:34;4.83;;;3.60;;
19278;SDS011;9773;47.062;15.446;2023-04-05T09:39:03;3.67;;;3.30;;
19278;SDS011;9773;47.062;15.446;2023-04-05T09:41:33;3.83;;;3.53;;
19278;SDS011;9773;47.062;15.446;2023-04-05T09:44:00;3.90;;;3.37;;
19278;SDS011;9773;47.062;15.446;2023-04-05T09:46:33;3.90;;;2.60;;
19278;SDS011;9773;47.062;15.446;2023-04-05T09:49:01;3.97;;;3.17;;
19278;SDS011;9773;47.062;15.446;2023-04-05T09:51:34;2.80;;;2.60;;
19278;SDS011;9773;47.062;15.446;2023-04-05T09:54:07;2.73;;;2.53;;
19278;SDS011;9773;47.062;15.446;2023-04-05T09:56:35;3.37;;;3.07;;
19278;SDS011;9773;47.062;15.446;2023-04-05T09:59:06;3.17;;;2.90;;
19278;SDS011;9773;47.062;15.446;2023-04-05T10:01:34;4.17;;;3.00;;
19278;SDS011;9773;47.062;15.446;2023-04-05T10:04:07;5.53;;;2.90;;
19278;SDS011;9773;47.062;15.446;2023-04-05T10:06:34;3.00;;;2.80;;
19278;SDS011;9773;47.062;15.446;2023-04-05T10:09:01;3.17;;;2.93;;
19278;SDS011;9773;47.062;15.446;2023-04-05T10:11:28;3.10;;;2.80;;
19278;SDS011;9773;47.062;15.446;2023-04-05T10:13:54;2.97;;;2.77;;
19278;SDS011;9773;47.062;15.446;2023-04-05T10:16:21;3.43;;;2.67;;
19278;SDS011;9773;47.062;15.446;2023-04-05T10:18:50;3.23;;;2.93;;
19278;SDS011;9773;47.062;15.446;2023-04-05T10:21:21;3.07;;;2.87;;
19278;SDS011;9773;47.062;15.446;2023-04-05T10:23:57;2.90;;;2.70;;
19278;SDS011;9773;47.062;15.446;2023-04-05T10:26:41;3.13;;;2.83;;
19278;SDS011;9773;47.062;15.446;2023-04-05T10:29:16;3.00;;;2.80;;
19278;SDS011;9773;47.062;15.446;2023-04-05T10:34:41;5.60;;;2.90;;
19278;SDS011;9773;47.062;15.446;2023-04-05T10:40:03;5.50;;;2.63;;
19278;SDS011;9773;47.062;15.446;2023-04-05T10:42:43;2.93;;;2.73;;
19278;SDS011;9773;47.062;15.446;2023-04-05T10:45:14;4.83;;;2.63;;
19278;SDS011;9773;47.062;15.446;2023-04-05T10:47:46;2.83;;;2.53;;
19278;SDS011;9773;47.062;15.446;2023-04-05T10:50:23;4.10;;;2.70;;
19278;SDS011;9773;47.062;15.446;2023-04-05T10:52:50;2.73;;;2.53;;
19278;SDS011;9773;47.062;15.446;2023-04-05T10:55:17;3.00;;;2.70;;
19278;SDS011;9773;47.062;15.446;2023-04-05T10:57:43;3.37;;;2.73;;
19278;SDS011;9773;47.062;15.446;2023-04-05T11:00:10;2.73;;;2.53;;
19278;SDS011;9773;47.062;15.446;2023-04-05T11:02:37;2.87;;;2.50;;
19278;SDS011;9773;47.062;15.446;2023-04-05T11:05:03;4.13;;;2.63;;
19278;SDS011;9773;47.062;15.446;2023-04-05T11:07:42;2.50;;;2.37;;
19278;SDS011;9773;47.062;15.446;2023-04-05T11:10:14;2.30;;;2.20;;
19278;SDS011;9773;47.062;15.446;2023-04-05T11:18:05;4.53;;;2.23;;
19278;SDS011;9773;47.062;15.446;2023-04-05T11:20:48;2.53;;;2.30;;
19278;SDS011;9773;47.062;15.446;2023-04-05T11:23:17;5.07;;;2.53;;
19278;SDS011;9773;47.062;15.446;2023-04-05T11:25:53;3.03;;;2.80;;
19278;SDS011;9773;47.062;15.446;2023-04-05T11:28:22;3.40;;;3.10;;
19278;SDS011;9773;47.062;15.446;2023-04-05T11:30:50;3.93;;;2.43;;
19278;SDS011;9773;47.062;15.446;2023-04-05T11:36:03;3.07;;;2.50;;
19278;SDS011;9773;47.062;15.446;2023-04-05T11:38:29;3.67;;;2.70;;
19278;SDS011;9773;47.062;15.446;2023-04-05T11:41:14;2.50;;;2.40;;
19278;SDS011;9773;47.062;15.446;2023-04-05T11:43:48;3.53;;;2.70;;
19278;SDS011;9773;47.062;15.446;2023-04-05T11:46:16;2.50;;;2.40;;
19278;SDS011;9773;47.062;15.446;2023-04-05T11:48:47;4.80;;;2.80;;
19278;SDS011;9773;47.062;15.446;2023-04-05T11:51:14;2.83;;;2.60;;
19278;SDS011;9773;47.062;15.446;2023-04-05T11:53:45;3.60;;;2.60;;
19278;SDS011;9773;47.062;15.446;2023-04-05T11:56:11;2.60;;;2.50;;
19278;SDS011;9773;47.062;15.446;2023-04-05T11:58:40;3.63;;;2.97;;
19278;SDS011;9773;47.062;15.446;2023-04-05T12:01:07;3.37;;;2.30;;
19278;SDS011;9773;47.062;15.446;2023-04-05T12:03:33;2.77;;;2.17;;
19278;SDS011;9773;47.062;15.446;2023-04-05T12:06:01;5.03;;;2.47;;
19278;SDS011;9773;47.062;15.446;2023-04-05T12:08:38;2.50;;;2.30;;
19278;SDS011;9773;47.062;15.446;2023-04-05T12:11:24;2.97;;;2.37;;
19278;SDS011;9773;47.062;15.446;2023-04-05T12:13:58;2.30;;;2.10;;
19278;SDS011;9773;47.062;15.446;2023-04-05T12:16:25;2.50;;;2.40;;
19278;SDS011;9773;47.062;15.446;2023-04-05T12:18:55;2.70;;;2.50;;
19278;SDS011;9773;47.062;15.446;2023-04-05T12:21:24;3.07;;;2.37;;
19278;SDS011;9773;47.062;15.446;2023-04-05T12:23:51;2.23;;;2.13;;
19278;SDS011;9773;47.062;15.446;2023-04-05T12:26:18;3.00;;;2.23;;
19278;SDS011;9773;47.062;15.446;2023-04-05T12:31:40;2.67;;;2.50;;
19278;SDS011;9773;47.062;15.446;2023-04-05T12:34:10;3.07;;;2.27;;
19278;SDS011;9773;47.062;15.446;2023-04-05T12:36:37;3.20;;;2.70;;
19278;SDS011;9773;47.062;15.446;2023-04-05T12:39:08;3.13;;;2.37;;
19278;SDS011;9773;47.062;15.446;2023-04-05T12:41:35;2.30;;;2.20;;
19278;SDS011;9773;47.062;15.446;2023-04-05T12:44:04;2.20;;;2.10;;
19278;SDS011;9773;47.062;15.446;2023-04-05T12:46:40;2.17;;;2.07;;
19278;SDS011;9773;47.062;15.446;2023-04-05T12:49:16;2.30;;;2.13;;
19278;SDS011;9773;47.062;15.446;2023-04-05T12:54:19;3.73;;;2.30;;
19278;SDS011;9773;47.062;15.446;2023-04-05T12:56:50;3.00;;;2.50;;
19278;SDS011;9773;47.062;15.446;2023-04-05T12:59:17;3.07;;;2.50;;
19278;SDS011;9773;47.062;15.446;2023-04-05T13:01:42;2.40;;;2.20;;
19278;SDS011;9773;47.062;15.446;2023-04-05T13:04:08;2.70;;;2.37;;
19278;SDS011;9773;47.062;15.446;2023-04-05T13:06:34;2.50;;;2.30;;
19278;SDS011;9773;47.062;15.446;2023-04-05T13:09:00;2.33;;;2.13;;
19278;SDS011;9773;47.062;15.446;2023-04-05T13:11:25;2.77;;;2.50;;
19278;SDS011;9773;47.062;15.446;2023-04-05T13:13:52;3.43;;;2.10;;
19278;SDS011;9773;47.062;15.446;2023-04-05T13:16:18;2.20;;;2.10;;
19278;SDS011;9773;47.062;15.446;2023-04-05T13:18:44;2.10;;;2.00;;
19278;SDS011;9773;47.062;15.446;2023-04-05T13:21:10;3.17;;;2.10;;
19278;SDS011;9773;47.062;15.446;2023-04-05T13:23:36;2.30;;;2.20;;
19278;SDS011;9773;47.062;15.446;2023-04-05T13:26:03;2.40;;;2.10;;
19278;SDS011;9773;47.062;15.446;2023-04-05T13:28:29;2.30;;;2.20;;
19278;SDS011;9773;47.062;15.446;2023-04-05T13:30:55;2.57;;;2.37;;
19278;SDS011;9773;47.062;15.446;2023-04-05T13:33:21;2.73;;;2.50;;
19278;SDS011;9773;47.062;15.446;2023-04-05T13:35:47;2.20;;;2.10;;
19278;SDS011;9773;47.062;15.446;2023-04-05T13:38:13;2.30;;;2.20;;
19278;SDS011;9773;47.062;15.446;2023-04-05T13:40:39;2.20;;;2.07;;
19278;SDS011;9773;47.062;15.446;2023-04-05T13:43:05;2.47;;;2.27;;
19278;SDS011;9773;47.062;15.446;2023-04-05T13:45:32;2.33;;;2.20;;
19278;SDS011;9773;47.062;15.446;2023-04-05T13:47:58;3.43;;;2.57;;
19278;SDS011;9773;47.062;15.446;2023-04-05T13:50:26;2.87;;;2.47;;
19278;SDS011;9773;47.062;15.446;2023-04-05T13:52:52;2.80;;;2.43;;
19278;SDS011;9773;47.062;15.446;2023-04-05T13:55:18;2.30;;;2.17;;
19278;SDS011;9773;47.062;15.446;2023-04-05T13:57:44;2.40;;;2.30;;
19278;SDS011;9773;47.062;15.446;2023-04-05T14:00:10;2.47;;;2.33;;
19278;SDS011;9773;47.062;15.446;2023-04-05T14:02:36;2.40;;;2.20;;
19278;SDS011;9773;47.062;15.446;2023-04-05T14:05:03;3.60;;;2.37;;
19278;SDS011;9773;47.062;15.446;2023-04-05T14:07:30;2.10;;;2.00;;
19278;SDS011;9773;47.062;15.446;2023-04-05T14:09:56;2.37;;;2.27;;
19278;SDS011;9773;47.062;15.446;2023-04-05T14:12:22;3.17;;;2.03;;
19278;SDS011;9773;47.062;15.446;2023-04-05T14:14:48;2.23;;;2.03;;
19278;SDS011;9773;47.062;15.446;2023-04-05T14:17:14;2.10;;;2.00;;
19278;SDS011;9773;47.062;15.446;2023-04-05T14:19:40;4.40;;;2.10;;
19278;SDS011;9773;47.062;15.446;2023-04-05T14:22:06;3.97;;;2.50;;
19278;SDS011;9773;47.062;15.446;2023-04-05T14:24:32;2.53;;;2.30;;
19278;SDS011;9773;47.062;15.446;2023-04-05T14:26:58;2.50;;;2.30;;
19278;SDS011;9773;47.062;15.446;2023-04-05T14:29:23;2.10;;;2.00;;
19278;SDS011;9773;47.062;15.446;2023-04-05T14:31:49;2.20;;;2.10;;
19278;SDS011;9773;47.062;15.446;2023-04-05T14:34:15;2.30;;;2.10;;
19278;SDS011;9773;47.062;15.446;2023-04-05T14:36:41;2.30;;;2.10;;
19278;SDS011;9773;47.062;15.446;2023-04-05T14:39:07;2.10;;;1.90;;
19278;SDS011;9773;47.062;15.446;2023-04-05T14:41:32;2.33;;;2.23;;
19278;SDS011;9773;47.062;15.446;2023-04-05T14:43:59;2.43;;;1.97;;
19278;SDS011;9773;47.062;15.446;2023-04-05T14:46:25;2.23;;;2.10;;
19278;SDS011;9773;47.062;15.446;2023-04-05T14:48:50;2.20;;;2.10;;
19278;SDS011;9773;47.062;15.446;2023-04-05T14:51:16;1.97;;;1.87;;
19278;SDS011;9773;47.062;15.446;2023-04-05T14:53:42;3.33;;;2.37;;
19278;SDS011;9773;47.062;15.446;2023-04-05T14:56:08;2.17;;;2.07;;
19278;SDS011;9773;47.062;15.446;2023-04-05T14:58:36;2.37;;;1.90;;
19278;SDS011;9773;47.062;15.446;2023-04-05T15:01:02;2.40;;;2.20;;
19278;SDS011;9773;47.062;15.446;2023-04-05T15:03:29;2.30;;;2.10;;
19278;SDS011;9773;47.062;15.446;2023-04-05T15:05:55;1.90;;;1.80;;
19278;SDS011;9773;47.062;15.446;2023-04-05T15:08:21;2.13;;;2.03;;
19278;SDS011;9773;47.062;15.446;2023-04-05T15:10:47;2.00;;;1.90;;
19278;SDS011;9773;47.062;15.446;2023-04-05T15:13:13;2.10;;;2.00;;
19278;SDS011;9773;47.062;15.446;2023-04-05T15:15:39;1.80;;;1.70;;
19278;SDS011;9773;47.062;15.446;2023-04-05T15:18:07;1.97;;;1.83;;
19278;SDS011;9773;47.062;15.446;2023-04-05T15:20:33;3.63;;;2.97;;
19278;SDS011;9773;47.062;15.446;2023-04-05T15:22:59;2.27;;;2.17;;
19278;SDS011;9773;47.062;15.446;2023-04-05T15:25:25;2.17;;;2.07;;